Terminal Aerodrome Forecast
Issued by NWS

Current Version | Previous Version | Text Only | Print | Product List | Glossary Off
Versions: 1 2 3 4 5 6 7 8 9 10 11 12 13 14 15 16 17 18 19 20 21 22 23 24

262
FTUS44 KOHX 171722
TAFCKV
TAF
KCKV 171722Z 1718/1818 15008KT 1SM RA BR BKN005 OVC035
     FM171900 18007KT 3SM -RA BR OVC005
     FM172200 29007KT 4SM BR OVC007
     FM180200 32006KT 6SM BR OVC012
     FM180600 35004KT 3SM BR SKC=

USA.gov is the U.S. government's official web portal to all federal, state and local government web resources and services.